sensor_id;sensor_type;location;lat;lon;timestamp;P1;durP1;ratioP1;P2;durP2;ratioP2
13083;SDS011;6608;48.790;9.198;2023-09-08T00:00:22;156.27;;;73.63;;
13083;SDS011;6608;48.790;9.198;2023-09-08T00:02:49;153.30;;;71.80;;
13083;SDS011;6608;48.790;9.198;2023-09-08T00:05:16;155.37;;;72.80;;
13083;SDS011;6608;48.790;9.198;2023-09-08T00:07:48;155.70;;;72.00;;
13083;SDS011;6608;48.790;9.198;2023-09-08T00:10:14;154.40;;;72.10;;
13083;SDS011;6608;48.790;9.198;2023-09-08T00:12:41;153.53;;;71.43;;
13083;SDS011;6608;48.790;9.198;2023-09-08T00:15:08;154.63;;;71.60;;
13083;SDS011;6608;48.790;9.198;2023-09-08T00:17:34;152.17;;;72.20;;
13083;SDS011;6608;48.790;9.198;2023-09-08T00:20:05;153.60;;;72.40;;
13083;SDS011;6608;48.790;9.198;2023-09-08T00:22:33;155.87;;;71.90;;
13083;SDS011;6608;48.790;9.198;2023-09-08T00:25:00;157.47;;;72.90;;
13083;SDS011;6608;48.790;9.198;2023-09-08T00:27:26;161.93;;;72.63;;
13083;SDS011;6608;48.790;9.198;2023-09-08T00:29:54;152.40;;;71.80;;
13083;SDS011;6608;48.790;9.198;2023-09-08T00:32:20;154.63;;;71.53;;
13083;SDS011;6608;48.790;9.198;2023-09-08T00:34:46;152.43;;;71.00;;
13083;SDS011;6608;48.790;9.198;2023-09-08T00:37:14;158.43;;;72.27;;
13083;SDS011;6608;48.790;9.198;2023-09-08T00:39:41;152.23;;;71.13;;
13083;SDS011;6608;48.790;9.198;2023-09-08T00:42:07;154.17;;;71.47;;
13083;SDS011;6608;48.790;9.198;2023-09-08T00:44:34;152.77;;;72.37;;
13083;SDS011;6608;48.790;9.198;2023-09-08T00:47:00;154.83;;;71.80;;
13083;SDS011;6608;48.790;9.198;2023-09-08T00:49:27;155.43;;;71.10;;
13083;SDS011;6608;48.790;9.198;2023-09-08T00:51:53;153.37;;;71.57;;
13083;SDS011;6608;48.790;9.198;2023-09-08T00:54:21;151.50;;;69.63;;
13083;SDS011;6608;48.790;9.198;2023-09-08T00:56:48;154.77;;;71.23;;
13083;SDS011;6608;48.790;9.198;2023-09-08T00:59:15;152.33;;;71.03;;
13083;SDS011;6608;48.790;9.198;2023-09-08T01:01:41;152.50;;;71.43;;
13083;SDS011;6608;48.790;9.198;2023-09-08T01:04:08;153.87;;;70.87;;
13083;SDS011;6608;48.790;9.198;2023-09-08T01:06:34;156.27;;;72.10;;
13083;SDS011;6608;48.790;9.198;2023-09-08T01:09:02;152.60;;;71.17;;
13083;SDS011;6608;48.790;9.198;2023-09-08T01:11:30;151.23;;;71.13;;
13083;SDS011;6608;48.790;9.198;2023-09-08T01:13:57;150.63;;;70.47;;
13083;SDS011;6608;48.790;9.198;2023-09-08T01:16:23;152.13;;;71.10;;
13083;SDS011;6608;48.790;9.198;2023-09-08T01:18:50;151.07;;;70.83;;
13083;SDS011;6608;48.790;9.198;2023-09-08T01:21:22;152.07;;;70.63;;
13083;SDS011;6608;48.790;9.198;2023-09-08T01:23:57;149.33;;;69.03;;
13083;SDS011;6608;48.790;9.198;2023-09-08T01:26:27;151.33;;;70.57;;
13083;SDS011;6608;48.790;9.198;2023-09-08T01:28:56;152.33;;;70.83;;
13083;SDS011;6608;48.790;9.198;2023-09-08T01:31:23;150.27;;;70.27;;
13083;SDS011;6608;48.790;9.198;2023-09-08T01:33:49;149.97;;;70.97;;
13083;SDS011;6608;48.790;9.198;2023-09-08T01:36:16;151.40;;;70.90;;
13083;SDS011;6608;48.790;9.198;2023-09-08T01:38:42;159.77;;;70.40;;
13083;SDS011;6608;48.790;9.198;2023-09-08T01:41:09;154.50;;;71.10;;
13083;SDS011;6608;48.790;9.198;2023-09-08T01:43:37;154.90;;;71.13;;
13083;SDS011;6608;48.790;9.198;2023-09-08T01:46:03;151.00;;;71.20;;
13083;SDS011;6608;48.790;9.198;2023-09-08T01:48:30;151.57;;;71.10;;
13083;SDS011;6608;48.790;9.198;2023-09-08T01:50:56;149.60;;;69.23;;
13083;SDS011;6608;48.790;9.198;2023-09-08T01:53:22;151.73;;;70.47;;
13083;SDS011;6608;48.790;9.198;2023-09-08T01:55:49;151.53;;;71.43;;
13083;SDS011;6608;48.790;9.198;2023-09-08T01:58:15;149.03;;;69.97;;
13083;SDS011;6608;48.790;9.198;2023-09-08T02:00:43;151.60;;;71.23;;
13083;SDS011;6608;48.790;9.198;2023-09-08T02:03:14;151.47;;;70.47;;
13083;SDS011;6608;48.790;9.198;2023-09-08T02:05:40;152.40;;;71.10;;
13083;SDS011;6608;48.790;9.198;2023-09-08T02:08:06;154.80;;;72.47;;
13083;SDS011;6608;48.790;9.198;2023-09-08T02:10:33;148.73;;;69.83;;
13083;SDS011;6608;48.790;9.198;2023-09-08T02:12:59;155.47;;;71.07;;
13083;SDS011;6608;48.790;9.198;2023-09-08T02:15:25;149.13;;;70.27;;
13083;SDS011;6608;48.790;9.198;2023-09-08T02:17:53;149.87;;;70.17;;
13083;SDS011;6608;48.790;9.198;2023-09-08T02:20:30;150.63;;;70.53;;
13083;SDS011;6608;48.790;9.198;2023-09-08T02:22:57;153.27;;;70.93;;
13083;SDS011;6608;48.790;9.198;2023-09-08T02:25:23;150.60;;;70.10;;
13083;SDS011;6608;48.790;9.198;2023-09-08T02:27:50;154.53;;;70.00;;
13083;SDS011;6608;48.790;9.198;2023-09-08T02:30:16;152.73;;;71.00;;
13083;SDS011;6608;48.790;9.198;2023-09-08T02:32:43;150.60;;;70.03;;
13083;SDS011;6608;48.790;9.198;2023-09-08T02:35:12;150.87;;;70.90;;
13083;SDS011;6608;48.790;9.198;2023-09-08T02:37:38;150.27;;;70.87;;
13083;SDS011;6608;48.790;9.198;2023-09-08T02:40:05;149.53;;;70.63;;
13083;SDS011;6608;48.790;9.198;2023-09-08T02:42:32;151.20;;;70.80;;
13083;SDS011;6608;48.790;9.198;2023-09-08T02:44:58;149.33;;;70.63;;
13083;SDS011;6608;48.790;9.198;2023-09-08T02:47:25;152.67;;;71.10;;
13083;SDS011;6608;48.790;9.198;2023-09-08T02:49:51;153.37;;;71.50;;
13083;SDS011;6608;48.790;9.198;2023-09-08T02:52:19;150.10;;;70.10;;
13083;SDS011;6608;48.790;9.198;2023-09-08T02:54:46;150.27;;;70.37;;
13083;SDS011;6608;48.790;9.198;2023-09-08T02:57:12;151.97;;;70.93;;
13083;SDS011;6608;48.790;9.198;2023-09-08T02:59:38;155.03;;;72.03;;
13083;SDS011;6608;48.790;9.198;2023-09-08T03:02:05;152.00;;;71.13;;
13083;SDS011;6608;48.790;9.198;2023-09-08T03:04:31;150.57;;;70.43;;
13083;SDS011;6608;48.790;9.198;2023-09-08T03:06:58;150.07;;;70.43;;
13083;SDS011;6608;48.790;9.198;2023-09-08T03:09:25;151.17;;;71.20;;
13083;SDS011;6608;48.790;9.198;2023-09-08T03:11:52;152.77;;;70.90;;
13083;SDS011;6608;48.790;9.198;2023-09-08T03:14:18;152.43;;;70.63;;
13083;SDS011;6608;48.790;9.198;2023-09-08T03:16:45;153.17;;;72.00;;
13083;SDS011;6608;48.790;9.198;2023-09-08T03:19:11;150.50;;;71.50;;
13083;SDS011;6608;48.790;9.198;2023-09-08T03:21:38;151.53;;;71.87;;
13083;SDS011;6608;48.790;9.198;2023-09-08T03:24:04;152.60;;;71.73;;
13083;SDS011;6608;48.790;9.198;2023-09-08T03:26:32;150.03;;;71.50;;
13083;SDS011;6608;48.790;9.198;2023-09-08T03:28:59;150.60;;;71.27;;
13083;SDS011;6608;48.790;9.198;2023-09-08T03:31:25;151.57;;;71.00;;
13083;SDS011;6608;48.790;9.198;2023-09-08T03:33:52;151.40;;;71.70;;
13083;SDS011;6608;48.790;9.198;2023-09-08T03:36:19;149.40;;;70.30;;
13083;SDS011;6608;48.790;9.198;2023-09-08T03:38:45;154.67;;;71.63;;
13083;SDS011;6608;48.790;9.198;2023-09-08T03:41:11;153.30;;;72.43;;
13083;SDS011;6608;48.790;9.198;2023-09-08T03:43:39;154.53;;;71.00;;
13083;SDS011;6608;48.790;9.198;2023-09-08T03:46:06;149.60;;;70.63;;
13083;SDS011;6608;48.790;9.198;2023-09-08T03:48:32;151.53;;;72.33;;
13083;SDS011;6608;48.790;9.198;2023-09-08T03:50:58;150.70;;;71.33;;
13083;SDS011;6608;48.790;9.198;2023-09-08T03:53:25;150.93;;;71.30;;
13083;SDS011;6608;48.790;9.198;2023-09-08T03:55:51;152.50;;;71.30;;
13083;SDS011;6608;48.790;9.198;2023-09-08T03:58:18;155.93;;;71.73;;
13083;SDS011;6608;48.790;9.198;2023-09-08T04:00:45;150.53;;;70.63;;
13083;SDS011;6608;48.790;9.198;2023-09-08T04:03:12;149.47;;;69.97;;
13083;SDS011;6608;48.790;9.198;2023-09-08T04:05:38;152.50;;;71.43;;
13083;SDS011;6608;48.790;9.198;2023-09-08T04:08:05;152.17;;;72.13;;
13083;SDS011;6608;48.790;9.198;2023-09-08T04:10:31;153.50;;;70.63;;
13083;SDS011;6608;48.790;9.198;2023-09-08T04:12:58;149.93;;;70.60;;
13083;SDS011;6608;48.790;9.198;2023-09-08T04:15:24;154.27;;;70.77;;
13083;SDS011;6608;48.790;9.198;2023-09-08T04:17:52;152.30;;;70.67;;
13083;SDS011;6608;48.790;9.198;2023-09-08T04:20:19;154.43;;;71.53;;
13083;SDS011;6608;48.790;9.198;2023-09-08T04:22:45;149.23;;;70.80;;
13083;SDS011;6608;48.790;9.198;2023-09-08T04:25:12;152.53;;;71.43;;
13083;SDS011;6608;48.790;9.198;2023-09-08T04:27:39;151.03;;;71.13;;
13083;SDS011;6608;48.790;9.198;2023-09-08T04:30:05;151.07;;;71.70;;
13083;SDS011;6608;48.790;9.198;2023-09-08T04:32:32;152.77;;;70.93;;
13083;SDS011;6608;48.790;9.198;2023-09-08T04:35:00;151.87;;;71.50;;
13083;SDS011;6608;48.790;9.198;2023-09-08T04:37:26;149.97;;;71.43;;
13083;SDS011;6608;48.790;9.198;2023-09-08T04:39:53;148.77;;;70.17;;
13083;SDS011;6608;48.790;9.198;2023-09-08T04:42:19;148.57;;;70.60;;
13083;SDS011;6608;48.790;9.198;2023-09-08T04:44:46;151.27;;;71.40;;
13083;SDS011;6608;48.790;9.198;2023-09-08T04:47:12;158.53;;;71.80;;
13083;SDS011;6608;48.790;9.198;2023-09-08T04:49:38;151.60;;;71.33;;
13083;SDS011;6608;48.790;9.198;2023-09-08T04:52:06;150.17;;;70.43;;
13083;SDS011;6608;48.790;9.198;2023-09-08T04:54:33;152.40;;;70.13;;
13083;SDS011;6608;48.790;9.198;2023-09-08T04:57:00;149.37;;;70.63;;
13083;SDS011;6608;48.790;9.198;2023-09-08T04:59:27;150.43;;;71.30;;
13083;SDS011;6608;48.790;9.198;2023-09-08T05:01:54;152.20;;;71.67;;
13083;SDS011;6608;48.790;9.198;2023-09-08T05:04:21;152.10;;;71.33;;
13083;SDS011;6608;48.790;9.198;2023-09-08T05:06:47;155.43;;;71.67;;
13083;SDS011;6608;48.790;9.198;2023-09-08T05:09:15;156.67;;;73.20;;
13083;SDS011;6608;48.790;9.198;2023-09-08T05:11:41;153.13;;;71.73;;
13083;SDS011;6608;48.790;9.198;2023-09-08T05:14:08;155.00;;;71.40;;
13083;SDS011;6608;48.790;9.198;2023-09-08T05:16:35;150.67;;;70.50;;
13083;SDS011;6608;48.790;9.198;2023-09-08T05:19:11;151.27;;;71.53;;
13083;SDS011;6608;48.790;9.198;2023-09-08T05:21:38;156.73;;;71.27;;
13083;SDS011;6608;48.790;9.198;2023-09-08T05:24:05;148.67;;;71.53;;
13083;SDS011;6608;48.790;9.198;2023-09-08T05:26:33;152.57;;;71.07;;
13083;SDS011;6608;48.790;9.198;2023-09-08T05:29:00;150.47;;;71.23;;
13083;SDS011;6608;48.790;9.198;2023-09-08T05:31:26;151.87;;;72.33;;
13083;SDS011;6608;48.790;9.198;2023-09-08T05:33:52;150.70;;;71.93;;
13083;SDS011;6608;48.790;9.198;2023-09-08T05:36:19;150.50;;;72.10;;
13083;SDS011;6608;48.790;9.198;2023-09-08T05:38:45;157.13;;;76.13;;
13083;SDS011;6608;48.790;9.198;2023-09-08T05:41:12;150.27;;;71.93;;
13083;SDS011;6608;48.790;9.198;2023-09-08T05:43:40;152.70;;;71.20;;
13083;SDS011;6608;48.790;9.198;2023-09-08T05:46:06;152.00;;;71.20;;
13083;SDS011;6608;48.790;9.198;2023-09-08T05:48:32;154.53;;;71.03;;
13083;SDS011;6608;48.790;9.198;2023-09-08T05:50:59;154.60;;;71.67;;
13083;SDS011;6608;48.790;9.198;2023-09-08T05:53:27;150.50;;;71.80;;
13083;SDS011;6608;48.790;9.198;2023-09-08T05:55:53;150.63;;;71.23;;
13083;SDS011;6608;48.790;9.198;2023-09-08T05:58:20;147.23;;;69.27;;
13083;SDS011;6608;48.790;9.198;2023-09-08T06:00:47;149.40;;;71.23;;
13083;SDS011;6608;48.790;9.198;2023-09-08T06:03:14;148.90;;;70.90;;
13083;SDS011;6608;48.790;9.198;2023-09-08T06:05:40;150.07;;;70.80;;
13083;SDS011;6608;48.790;9.198;2023-09-08T06:08:07;148.37;;;70.37;;
13083;SDS011;6608;48.790;9.198;2023-09-08T06:10:33;154.13;;;71.03;;
13083;SDS011;6608;48.790;9.198;2023-09-08T06:13:00;148.77;;;69.40;;
13083;SDS011;6608;48.790;9.198;2023-09-08T06:15:30;151.53;;;70.43;;
13083;SDS011;6608;48.790;9.198;2023-09-08T06:17:58;150.10;;;70.37;;
13083;SDS011;6608;48.790;9.198;2023-09-08T06:20:24;149.30;;;69.93;;
13083;SDS011;6608;48.790;9.198;2023-09-08T06:22:51;149.90;;;71.13;;
13083;SDS011;6608;48.790;9.198;2023-09-08T06:25:18;151.77;;;71.70;;
13083;SDS011;6608;48.790;9.198;2023-09-08T06:27:44;151.97;;;71.23;;
13083;SDS011;6608;48.790;9.198;2023-09-08T06:30:11;147.90;;;70.03;;
13083;SDS011;6608;48.790;9.198;2023-09-08T06:32:38;149.50;;;70.30;;
13083;SDS011;6608;48.790;9.198;2023-09-08T06:35:06;155.17;;;72.23;;
13083;SDS011;6608;48.790;9.198;2023-09-08T06:37:34;151.87;;;71.13;;
13083;SDS011;6608;48.790;9.198;2023-09-08T06:40:01;154.47;;;72.07;;
13083;SDS011;6608;48.790;9.198;2023-09-08T06:42:27;152.80;;;74.17;;
13083;SDS011;6608;48.790;9.198;2023-09-08T06:44:54;152.77;;;72.83;;
13083;SDS011;6608;48.790;9.198;2023-09-08T06:47:20;149.13;;;71.53;;
13083;SDS011;6608;48.790;9.198;2023-09-08T06:49:47;152.57;;;71.47;;
13083;SDS011;6608;48.790;9.198;2023-09-08T06:52:14;158.33;;;73.57;;
13083;SDS011;6608;48.790;9.198;2023-09-08T06:54:41;155.50;;;72.20;;
13083;SDS011;6608;48.790;9.198;2023-09-08T06:57:07;152.63;;;71.83;;
13083;SDS011;6608;48.790;9.198;2023-09-08T06:59:34;158.13;;;73.97;;
13083;SDS011;6608;48.790;9.198;2023-09-08T07:02:00;157.07;;;75.90;;
13083;SDS011;6608;48.790;9.198;2023-09-08T07:04:26;151.73;;;71.97;;
13083;SDS011;6608;48.790;9.198;2023-09-08T07:06:53;157.80;;;72.67;;
13083;SDS011;6608;48.790;9.198;2023-09-08T07:09:21;154.20;;;73.27;;
13083;SDS011;6608;48.790;9.198;2023-09-08T07:11:47;154.40;;;73.40;;
13083;SDS011;6608;48.790;9.198;2023-09-08T07:14:14;154.60;;;73.43;;
13083;SDS011;6608;48.790;9.198;2023-09-08T07:16:40;154.43;;;73.27;;
13083;SDS011;6608;48.790;9.198;2023-09-08T07:19:06;157.03;;;72.83;;
13083;SDS011;6608;48.790;9.198;2023-09-08T07:21:32;155.00;;;73.40;;
13083;SDS011;6608;48.790;9.198;2023-09-08T07:23:58;157.87;;;73.00;;
13083;SDS011;6608;48.790;9.198;2023-09-08T07:26:27;158.97;;;75.47;;
13083;SDS011;6608;48.790;9.198;2023-09-08T07:28:53;157.63;;;74.70;;
13083;SDS011;6608;48.790;9.198;2023-09-08T07:31:19;158.87;;;74.33;;
13083;SDS011;6608;48.790;9.198;2023-09-08T07:33:46;157.73;;;73.53;;
13083;SDS011;6608;48.790;9.198;2023-09-08T07:36:13;160.07;;;74.00;;
13083;SDS011;6608;48.790;9.198;2023-09-08T07:38:39;156.10;;;73.30;;
13083;SDS011;6608;48.790;9.198;2023-09-08T07:41:06;158.33;;;75.70;;
13083;SDS011;6608;48.790;9.198;2023-09-08T07:43:34;159.00;;;73.63;;
13083;SDS011;6608;48.790;9.198;2023-09-08T07:46:05;157.50;;;73.60;;
13083;SDS011;6608;48.790;9.198;2023-09-08T07:48:31;159.73;;;74.50;;
13083;SDS011;6608;48.790;9.198;2023-09-08T07:50:58;160.63;;;74.90;;
13083;SDS011;6608;48.790;9.198;2023-09-08T07:53:25;158.20;;;74.50;;
13083;SDS011;6608;48.790;9.198;2023-09-08T07:55:51;157.77;;;74.50;;
13083;SDS011;6608;48.790;9.198;2023-09-08T07:58:18;162.10;;;77.03;;
13083;SDS011;6608;48.790;9.198;2023-09-08T08:00:46;158.03;;;76.70;;
13083;SDS011;6608;48.790;9.198;2023-09-08T08:03:12;156.13;;;75.27;;
13083;SDS011;6608;48.790;9.198;2023-09-08T08:05:38;165.97;;;75.07;;
13083;SDS011;6608;48.790;9.198;2023-09-08T08:08:05;158.20;;;75.17;;
13083;SDS011;6608;48.790;9.198;2023-09-08T08:10:31;156.50;;;76.63;;
13083;SDS011;6608;48.790;9.198;2023-09-08T08:12:58;160.52;;;76.57;;
13083;SDS011;6608;48.790;9.198;2023-09-08T08:15:34;154.32;;;75.78;;
13083;SDS011;6608;48.790;9.198;2023-09-08T08:18:02;157.27;;;78.20;;
13083;SDS011;6608;48.790;9.198;2023-09-08T08:20:28;154.15;;;77.18;;
13083;SDS011;6608;48.790;9.198;2023-09-08T08:22:55;159.35;;;78.63;;
13083;SDS011;6608;48.790;9.198;2023-09-08T08:25:21;157.80;;;78.13;;
13083;SDS011;6608;48.790;9.198;2023-09-08T08:27:48;155.02;;;77.30;;
13083;SDS011;6608;48.790;9.198;2023-09-08T08:30:14;151.50;;;77.65;;
13083;SDS011;6608;48.790;9.198;2023-09-08T08:32:40;155.32;;;77.60;;
13083;SDS011;6608;48.790;9.198;2023-09-08T08:35:08;153.15;;;77.97;;
13083;SDS011;6608;48.790;9.198;2023-09-08T08:37:35;153.35;;;77.25;;
13083;SDS011;6608;48.790;9.198;2023-09-08T08:40:01;153.45;;;79.18;;
13083;SDS011;6608;48.790;9.198;2023-09-08T08:42:30;155.60;;;78.63;;
13083;SDS011;6608;48.790;9.198;2023-09-08T08:44:57;154.93;;;79.10;;
13083;SDS011;6608;48.790;9.198;2023-09-08T08:47:23;158.70;;;79.20;;
13083;SDS011;6608;48.790;9.198;2023-09-08T08:49:51;158.43;;;79.45;;
13083;SDS011;6608;48.790;9.198;2023-09-08T08:52:21;163.90;;;91.18;;
13083;SDS011;6608;48.790;9.198;2023-09-08T08:54:47;149.93;;;79.63;;
13083;SDS011;6608;48.790;9.198;2023-09-08T08:57:14;148.68;;;77.80;;
13083;SDS011;6608;48.790;9.198;2023-09-08T08:59:40;145.43;;;77.55;;
13083;SDS011;6608;48.790;9.198;2023-09-08T09:02:07;150.63;;;78.60;;
13083;SDS011;6608;48.790;9.198;2023-09-08T09:04:35;148.60;;;78.05;;
13083;SDS011;6608;48.790;9.198;2023-09-08T09:07:02;145.13;;;77.57;;
13083;SDS011;6608;48.790;9.198;2023-09-08T09:09:31;153.75;;;79.60;;
13083;SDS011;6608;48.790;9.198;2023-09-08T09:11:57;146.07;;;78.18;;
13083;SDS011;6608;48.790;9.198;2023-09-08T09:14:24;145.77;;;78.05;;
13083;SDS011;6608;48.790;9.198;2023-09-08T09:16:50;142.57;;;78.25;;
13083;SDS011;6608;48.790;9.198;2023-09-08T09:19:20;147.85;;;80.30;;
13083;SDS011;6608;48.790;9.198;2023-09-08T09:21:52;153.25;;;79.03;;
13083;SDS011;6608;48.790;9.198;2023-09-08T09:24:28;146.57;;;79.55;;
13083;SDS011;6608;48.790;9.198;2023-09-08T09:26:56;145.38;;;78.38;;
13083;SDS011;6608;48.790;9.198;2023-09-08T09:29:23;147.43;;;78.95;;
13083;SDS011;6608;48.790;9.198;2023-09-08T09:31:52;147.32;;;79.20;;
13083;SDS011;6608;48.790;9.198;2023-09-08T09:34:20;146.02;;;78.63;;
13083;SDS011;6608;48.790;9.198;2023-09-08T09:36:47;148.48;;;78.25;;
13083;SDS011;6608;48.790;9.198;2023-09-08T09:39:15;147.23;;;77.60;;
13083;SDS011;6608;48.790;9.198;2023-09-08T09:41:42;143.70;;;78.72;;
13083;SDS011;6608;48.790;9.198;2023-09-08T09:44:10;143.43;;;78.03;;
13083;SDS011;6608;48.790;9.198;2023-09-08T09:46:36;143.63;;;77.80;;
13083;SDS011;6608;48.790;9.198;2023-09-08T09:49:03;146.10;;;78.05;;
13083;SDS011;6608;48.790;9.198;2023-09-08T09:51:29;148.15;;;78.55;;
13083;SDS011;6608;48.790;9.198;2023-09-08T09:53:56;145.63;;;78.30;;
13083;SDS011;6608;48.790;9.198;2023-09-08T09:56:23;145.07;;;78.55;;
13083;SDS011;6608;48.790;9.198;2023-09-08T09:58:51;144.75;;;78.43;;
13083;SDS011;6608;48.790;9.198;2023-09-08T10:01:20;145.30;;;78.53;;
13083;SDS011;6608;48.790;9.198;2023-09-08T10:03:48;145.23;;;78.20;;
13083;SDS011;6608;48.790;9.198;2023-09-08T10:06:15;145.68;;;78.05;;
13083;SDS011;6608;48.790;9.198;2023-09-08T10:08:42;142.30;;;78.00;;
13083;SDS011;6608;48.790;9.198;2023-09-08T10:11:09;150.20;;;78.47;;
13083;SDS011;6608;48.790;9.198;2023-09-08T10:13:38;143.25;;;78.10;;
13083;SDS011;6608;48.790;9.198;2023-09-08T10:16:05;144.35;;;78.40;;
13083;SDS011;6608;48.790;9.198;2023-09-08T10:18:33;141.63;;;78.13;;
13083;SDS011;6608;48.790;9.198;2023-09-08T10:21:00;144.38;;;81.13;;
13083;SDS011;6608;48.790;9.198;2023-09-08T10:23:31;142.20;;;78.20;;
13083;SDS011;6608;48.790;9.198;2023-09-08T10:26:01;139.75;;;78.45;;
13083;SDS011;6608;48.790;9.198;2023-09-08T10:28:29;139.98;;;77.57;;
13083;SDS011;6608;48.790;9.198;2023-09-08T10:30:56;139.05;;;78.78;;
13083;SDS011;6608;48.790;9.198;2023-09-08T10:33:23;140.77;;;77.97;;
13083;SDS011;6608;48.790;9.198;2023-09-08T10:35:51;141.38;;;78.45;;
13083;SDS011;6608;48.790;9.198;2023-09-08T10:38:22;141.40;;;79.65;;
13083;SDS011;6608;48.790;9.198;2023-09-08T10:40:49;140.27;;;77.68;;
13083;SDS011;6608;48.790;9.198;2023-09-08T10:43:15;147.68;;;78.07;;
13083;SDS011;6608;48.790;9.198;2023-09-08T10:45:42;140.95;;;77.38;;
13083;SDS011;6608;48.790;9.198;2023-09-08T10:48:09;142.52;;;77.75;;
13083;SDS011;6608;48.790;9.198;2023-09-08T10:50:38;142.70;;;77.60;;
13083;SDS011;6608;48.790;9.198;2023-09-08T10:53:14;142.52;;;77.38;;
13083;SDS011;6608;48.790;9.198;2023-09-08T10:55:41;144.80;;;77.18;;
13083;SDS011;6608;48.790;9.198;2023-09-08T10:58:13;142.88;;;77.20;;
13083;SDS011;6608;48.790;9.198;2023-09-08T11:00:43;142.40;;;77.57;;
13083;SDS011;6608;48.790;9.198;2023-09-08T11:03:11;145.48;;;77.78;;
13083;SDS011;6608;48.790;9.198;2023-09-08T11:05:37;146.43;;;77.65;;
13083;SDS011;6608;48.790;9.198;2023-09-08T11:08:04;145.82;;;77.30;;
13083;SDS011;6608;48.790;9.198;2023-09-08T11:10:32;147.32;;;78.20;;
13083;SDS011;6608;48.790;9.198;2023-09-08T11:12:59;154.10;;;77.60;;
13083;SDS011;6608;48.790;9.198;2023-09-08T11:15:28;150.20;;;77.30;;
13083;SDS011;6608;48.790;9.198;2023-09-08T11:17:55;147.40;;;77.32;;
13083;SDS011;6608;48.790;9.198;2023-09-08T11:20:26;145.25;;;76.97;;
13083;SDS011;6608;48.790;9.198;2023-09-08T11:22:52;148.75;;;77.95;;
13083;SDS011;6608;48.790;9.198;2023-09-08T11:25:19;146.95;;;77.85;;
13083;SDS011;6608;48.790;9.198;2023-09-08T11:27:48;151.35;;;78.13;;
13083;SDS011;6608;48.790;9.198;2023-09-08T11:30:15;153.77;;;81.68;;
13083;SDS011;6608;48.790;9.198;2023-09-08T11:32:41;147.77;;;76.40;;
13083;SDS011;6608;48.790;9.198;2023-09-08T11:35:09;146.60;;;77.68;;
13083;SDS011;6608;48.790;9.198;2023-09-08T11:37:36;147.55;;;77.32;;
13083;SDS011;6608;48.790;9.198;2023-09-08T11:40:03;146.52;;;77.05;;
13083;SDS011;6608;48.790;9.198;2023-09-08T11:42:34;147.18;;;78.03;;
13083;SDS011;6608;48.790;9.198;2023-09-08T11:45:02;148.55;;;76.40;;
13083;SDS011;6608;48.790;9.198;2023-09-08T11:47:29;147.38;;;77.25;;
13083;SDS011;6608;48.790;9.198;2023-09-08T11:49:56;152.20;;;78.03;;
13083;SDS011;6608;48.790;9.198;2023-09-08T11:52:23;151.27;;;77.00;;
13083;SDS011;6608;48.790;9.198;2023-09-08T11:54:51;152.65;;;78.50;;
13083;SDS011;6608;48.790;9.198;2023-09-08T11:57:17;150.82;;;78.32;;
13083;SDS011;6608;48.790;9.198;2023-09-08T11:59:44;148.48;;;78.45;;
13083;SDS011;6608;48.790;9.198;2023-09-08T12:02:14;151.05;;;77.55;;
13083;SDS011;6608;48.790;9.198;2023-09-08T12:04:41;150.80;;;78.25;;
13083;SDS011;6608;48.790;9.198;2023-09-08T12:07:11;153.70;;;78.47;;
13083;SDS011;6608;48.790;9.198;2023-09-08T12:09:39;149.00;;;78.55;;
13083;SDS011;6608;48.790;9.198;2023-09-08T12:12:10;155.63;;;78.88;;
13083;SDS011;6608;48.790;9.198;2023-09-08T12:14:39;153.20;;;78.45;;
13083;SDS011;6608;48.790;9.198;2023-09-08T12:17:06;151.65;;;79.13;;
13083;SDS011;6608;48.790;9.198;2023-09-08T12:19:34;149.25;;;76.43;;
13083;SDS011;6608;48.790;9.198;2023-09-08T12:22:02;151.32;;;76.63;;
13083;SDS011;6608;48.790;9.198;2023-09-08T12:24:48;150.55;;;77.18;;
13083;SDS011;6608;48.790;9.198;2023-09-08T12:27:15;150.18;;;76.85;;
13083;SDS011;6608;48.790;9.198;2023-09-08T12:29:42;150.80;;;78.05;;
13083;SDS011;6608;48.790;9.198;2023-09-08T12:32:17;149.57;;;76.68;;
13083;SDS011;6608;48.790;9.198;2023-09-08T12:34:45;150.85;;;78.13;;
13083;SDS011;6608;48.790;9.198;2023-09-08T12:37:11;197.70;;;99.65;;
13083;SDS011;6608;48.790;9.198;2023-09-08T12:39:38;168.88;;;80.97;;
13083;SDS011;6608;48.790;9.198;2023-09-08T12:42:04;167.90;;;81.15;;
13083;SDS011;6608;48.790;9.198;2023-09-08T12:44:31;164.85;;;79.93;;
13083;SDS011;6608;48.790;9.198;2023-09-08T12:46:57;164.90;;;80.28;;
13083;SDS011;6608;48.790;9.198;2023-09-08T12:49:24;168.85;;;81.07;;
13083;SDS011;6608;48.790;9.198;2023-09-08T12:51:52;166.98;;;80.85;;
13083;SDS011;6608;48.790;9.198;2023-09-08T12:54:18;160.40;;;78.75;;
13083;SDS011;6608;48.790;9.198;2023-09-08T12:56:45;158.70;;;78.47;;
13083;SDS011;6608;48.790;9.198;2023-09-08T12:59:11;163.10;;;80.40;;
13083;SDS011;6608;48.790;9.198;2023-09-08T13:01:38;160.55;;;78.70;;
13083;SDS011;6608;48.790;9.198;2023-09-08T13:04:12;166.35;;;81.10;;
13083;SDS011;6608;48.790;9.198;2023-09-08T13:06:39;162.82;;;79.15;;
13083;SDS011;6608;48.790;9.198;2023-09-08T13:09:07;161.00;;;79.63;;
13083;SDS011;6608;48.790;9.198;2023-09-08T13:11:34;159.93;;;79.20;;
13083;SDS011;6608;48.790;9.198;2023-09-08T13:14:02;169.82;;;81.88;;
13083;SDS011;6608;48.790;9.198;2023-09-08T13:16:28;167.57;;;83.78;;
13083;SDS011;6608;48.790;9.198;2023-09-08T13:18:55;166.40;;;80.97;;
13083;SDS011;6608;48.790;9.198;2023-09-08T13:21:26;164.80;;;80.07;;
13083;SDS011;6608;48.790;9.198;2023-09-08T13:23:53;166.32;;;80.03;;
13083;SDS011;6608;48.790;9.198;2023-09-08T13:26:21;161.23;;;77.70;;
13083;SDS011;6608;48.790;9.198;2023-09-08T13:28:47;167.52;;;80.15;;
13083;SDS011;6608;48.790;9.198;2023-09-08T13:31:14;181.57;;;81.97;;
13083;SDS011;6608;48.790;9.198;2023-09-08T13:33:40;181.68;;;81.88;;
13083;SDS011;6608;48.790;9.198;2023-09-08T13:36:28;177.73;;;80.63;;
13083;SDS011;6608;48.790;9.198;2023-09-08T13:38:54;185.80;;;80.65;;
13083;SDS011;6608;48.790;9.198;2023-09-08T13:41:21;191.30;;;83.50;;
13083;SDS011;6608;48.790;9.198;2023-09-08T13:43:48;178.10;;;79.47;;
13083;SDS011;6608;48.790;9.198;2023-09-08T13:46:14;173.00;;;77.73;;
13083;SDS011;6608;48.790;9.198;2023-09-08T13:48:41;173.00;;;78.07;;
13083;SDS011;6608;48.790;9.198;2023-09-08T13:51:07;173.73;;;78.87;;
13083;SDS011;6608;48.790;9.198;2023-09-08T13:53:35;172.77;;;78.90;;
13083;SDS011;6608;48.790;9.198;2023-09-08T13:56:01;165.85;;;77.10;;
13083;SDS011;6608;48.790;9.198;2023-09-08T13:58:30;175.03;;;80.23;;
13083;SDS011;6608;48.790;9.198;2023-09-08T14:00:56;169.80;;;78.70;;
13083;SDS011;6608;48.790;9.198;2023-09-08T14:03:23;168.45;;;78.68;;
13083;SDS011;6608;48.790;9.198;2023-09-08T14:05:49;172.65;;;79.03;;
13083;SDS011;6608;48.790;9.198;2023-09-08T14:08:16;168.53;;;78.57;;
13083;SDS011;6608;48.790;9.198;2023-09-08T14:10:44;166.50;;;77.82;;
13083;SDS011;6608;48.790;9.198;2023-09-08T14:13:11;166.27;;;77.87;;
13083;SDS011;6608;48.790;9.198;2023-09-08T14:15:37;169.57;;;79.40;;
13083;SDS011;6608;48.790;9.198;2023-09-08T14:18:04;171.63;;;79.63;;
13083;SDS011;6608;48.790;9.198;2023-09-08T14:20:30;170.57;;;78.80;;